Time;durP1;ratioP1;P1;durP2;ratioP2;P2;SDS_P1;SDS_P2;PMS_P1;PMS_P2;Temp;Humidity;BMP_temperature;BMP_pressure;BME280_temperature;BME280_humidity;BME280_pressure;Samples;Min_cycle;Max_cycle;Signal;HPM_P1;HPM_P2
2021/09/24 00:00:10;;;;;;;7.03;4.82;;;18.80;99.90;;;19.31;71.76;101624.66;4956701;29;20039;-70
2021/09/24 00:02:41;;;;;;;10.73;4.93;;;18.80;99.90;;;19.33;71.83;101622.84;4957011;29;20117;-70
2021/09/24 00:05:12;;;;;;;8.70;5.55;;;18.80;99.90;;;19.33;71.81;101617.50;4956709;29;20051;-70
2021/09/24 00:07:40;;;;;;;;;;;18.80;99.90;;;19.34;71.32;101612.06;4957163;29;20090;-70
2021/09/24 00:10:11;;;;;;;10.50;5.25;;;18.90;99.90;;;19.34;70.88;101603.13;4956829;29;19945;-70
2021/09/24 00:12:41;;;;;;;8.98;4.88;;;18.90;99.90;;;19.24;71.06;101598.94;4956567;29;20043;-70
2021/09/24 00:15:15;;;;;;;9.43;4.55;;;18.90;99.90;;;19.26;71.76;101616.72;4956136;28;20497;-70
2021/09/24 00:17:44;;;;;;;10.23;5.60;;;18.80;99.90;;;19.13;72.34;101611.75;4956594;29;20382;-70
2021/09/24 00:20:14;;;;;;;10.23;5.60;;;18.70;99.90;;;19.01;72.69;101610.28;4956604;29;20061;-70
2021/09/24 00:22:43;;;;;;;8.85;5.28;;;18.50;99.90;;;19.07;72.66;101606.56;4956323;29;20098;-70
2021/09/24 00:25:11;;;;;;;8.23;5.13;;;18.60;99.90;;;19.03;72.72;101602.22;4956774;29;20031;-70
2021/09/24 00:27:40;;;;;;;7.43;4.88;;;18.60;99.90;;;19.15;72.25;101610.81;4956724;29;20035;-70
2021/09/24 00:30:10;;;;;;;11.57;5.55;;;18.60;99.90;;;19.14;71.92;101601.00;4956157;29;20129;-70
2021/09/24 00:32:39;;;;;;;11.00;5.30;;;18.70;99.90;;;19.10;72.35;101601.13;4956205;29;20216;-70
2021/09/24 00:35:09;;;;;;;6.45;5.03;;;18.70;99.90;;;19.10;72.37;101601.13;4956074;29;20130;-70
2021/09/24 00:37:39;;;;;;;10.70;5.40;;;18.60;99.90;;;18.94;73.01;101600.66;4956086;29;20036;-70
2021/09/24 00:40:10;;;;;;;8.20;5.50;;;18.50;99.90;;;18.73;73.12;101602.13;4955900;29;20513;-70
2021/09/24 00:42:38;;;;;;;;;;;18.20;99.90;;;18.48;74.25;101602.78;4956688;29;20283;-70
2021/09/24 00:45:08;;;;;;;12.25;6.32;;;18.00;99.90;;;18.39;74.95;101590.44;4956116;29;19927;-70
2021/09/24 00:47:37;;;;;;;10.27;5.78;;;17.90;99.90;;;18.49;74.88;101592.03;4956197;29;20070;-70
2021/09/24 00:50:07;;;;;;;7.32;5.05;;;18.00;99.90;;;18.51;74.71;101583.94;4938812;29;20114;-70
2021/09/24 00:52:35;;;;;;;11.73;4.97;;;18.10;99.90;;;18.61;74.16;101581.00;4956363;29;20051;-69
2021/09/24 00:55:06;;;;;;;7.60;4.82;;;18.20;99.90;;;18.07;74.02;101475.22;4955743;29;20067;-70
2021/09/24 00:57:35;;;;;;;8.93;5.30;;;18.30;99.90;;;18.67;73.93;101583.50;4954801;29;20048;-69
2021/09/24 01:00:06;;;;;;;9.77;5.78;;;18.30;99.90;;;18.79;73.79;101583.16;4955608;29;20047;-70
2021/09/24 01:02:34;;;;;;;12.50;5.38;;;18.30;99.90;;;18.80;73.58;101576.00;4955695;29;20047;-69
2021/09/24 01:05:08;;;;;;;8.75;5.07;;;18.40;99.90;;;18.76;73.69;101585.94;4956134;29;20055;-70
2021/09/24 01:07:37;;;;;;;9.02;5.45;;;18.30;99.90;;;18.68;73.96;101585.25;4956125;29;20067;-70
2021/09/24 01:10:09;;;;;;;11.15;5.53;;;18.30;99.90;;;18.72;73.96;101578.00;4955479;29;20485;-70
2021/09/24 01:12:39;;;;;;;11.43;5.65;;;18.30;99.90;;;18.79;73.61;101582.31;4955499;29;20394;-70
2021/09/24 01:15:11;;;;;;;11.40;5.25;;;18.30;99.90;;;18.83;73.56;101582.16;4955600;29;20039;-69
2021/09/24 01:17:40;;;;;;;9.45;5.10;;;18.30;99.90;;;18.76;73.34;101569.88;4955769;29;20058;-69
2021/09/24 01:20:12;;;;;;;8.05;4.78;;;18.30;99.90;;;18.83;73.12;101568.75;4938359;29;20099;-70
2021/09/24 01:22:42;;;;;;;10.15;4.97;;;18.40;99.90;;;18.90;73.16;101573.06;4955359;29;20043;-70
2021/09/24 01:25:13;;;;;;;9.50;4.70;;;18.40;99.90;;;18.92;72.92;101578.38;4955386;29;20129;-69
2021/09/24 01:27:42;;;;;;;6.80;4.97;;;18.40;99.90;;;18.62;72.70;101549.72;4955022;28;20043;-69
2021/09/24 01:30:12;;;;;;;9.65;4.90;;;18.30;99.90;;;18.79;73.06;101568.91;4955194;29;20046;-70
2021/09/24 01:32:40;;;;;;;8.00;5.03;;;18.30;99.90;;;18.81;72.99;101567.91;4955448;29;20043;-69
2021/09/24 01:35:10;;;;;;;13.63;5.68;;;18.30;99.90;;;18.71;73.18;101569.13;4955085;29;20054;-69
2021/09/24 01:37:39;;;;;;;9.67;5.43;;;18.30;99.90;;;18.62;73.27;101547.91;4955410;29;20051;-69
2021/09/24 01:40:13;;;;;;;10.93;5.22;;;18.30;99.90;;;18.70;73.00;101553.94;4955380;29;20370;-70
2021/09/24 01:42:43;;;;;;;11.57;4.95;;;18.30;99.90;;;18.79;72.97;101553.69;4955023;29;20094;-69
2021/09/24 01:45:13;;;;;;;8.27;5.07;;;18.30;99.90;;;18.78;72.92;101554.63;4955239;29;20568;-70
2021/09/24 01:47:41;;;;;;;5.22;4.78;;;18.30;99.90;;;18.63;73.35;101552.34;4955001;29;20090;-69
2021/09/24 01:50:11;;;;;;;6.03;4.53;;;18.20;99.90;;;18.50;74.34;101558.06;4954940;29;20096;-70
2021/09/24 01:52:40;;;;;;;8.95;5.38;;;18.10;99.90;;;18.55;73.85;101543.63;4954671;29;20106;-74
2021/09/24 01:55:11;;;;;;;10.68;4.82;;;18.10;99.90;;;18.60;73.77;101541.69;4955136;29;20078;-73
2021/09/24 01:57:41;;;;;;;5.72;4.47;;;18.10;99.90;;;18.63;73.36;101541.63;4953953;29;20606;-75
2021/09/24 02:00:12;;;;;;;9.95;5.00;;;18.10;99.90;;;18.76;72.97;101540.38;4955123;29;20047;-73
2021/09/24 02:02:42;;;;;;;10.80;5.10;;;18.30;99.90;;;18.77;72.45;101526.06;4955100;29;20067;-74
2021/09/24 02:05:11;;;;;;;9.90;4.30;;;18.30;99.90;;;18.83;72.25;101533.06;4955076;29;20039;-73
2021/09/24 02:07:40;;;;;;;10.60;5.32;;;18.40;99.90;;;18.77;72.05;101523.38;4955065;29;20043;-73
2021/09/24 02:10:11;;;;;;;7.40;4.90;;;18.30;99.90;;;18.27;72.91;101521.13;4955293;29;20180;-74
2021/09/24 02:12:40;;;;;;;10.30;4.90;;;17.90;99.90;;;18.31;73.56;101517.44;4955053;29;20059;-73
2021/09/24 02:15:12;;;;;;;9.60;5.13;;;17.90;99.90;;;18.36;73.57;101506.59;4954792;29;20035;-73
2021/09/24 02:17:40;;;;;;;6.90;4.72;;;18.00;99.90;;;18.48;73.23;101511.69;4953522;29;20485;-74
2021/09/24 02:20:10;;;;;;;6.80;4.57;;;18.00;99.90;;;18.35;73.33;101500.34;4954668;29;20478;-74
2021/09/24 02:22:39;;;;;;;5.90;4.53;;;17.90;99.90;;;18.40;73.62;101511.84;4954839;29;20059;-73
2021/09/24 02:25:10;;;;;;;5.95;4.40;;;17.90;99.90;;;18.46;73.50;101510.84;4954706;29;20126;-74
2021/09/24 02:27:39;;;;;;;7.28;4.60;;;17.90;99.90;;;18.49;73.14;101517.00;4954668;29;20047;-74
2021/09/24 02:30:09;;;;;;;9.15;4.82;;;18.00;99.90;;;18.50;72.86;101513.41;4954878;29;20520;-73
2021/09/24 02:32:38;;;;;;;8.07;4.97;;;18.10;99.90;;;18.53;72.79;101518.69;4954627;29;20111;-73
2021/09/24 02:35:08;;;;;;;10.23;5.28;;;18.10;99.90;;;18.52;72.69;101506.22;4954820;29;20283;-73
2021/09/24 02:37:36;;;;;;;11.10;5.10;;;18.10;99.90;;;18.56;72.73;101501.66;4954627;29;20055;-73
2021/09/24 02:40:07;;;;;;;5.70;4.07;;;18.20;99.90;;;18.59;72.37;101507.78;4957977;28;20050;-73
2021/09/24 02:42:37;;;;;;;9.05;4.82;;;18.10;99.90;;;18.50;72.38;101501.81;4941557;29;20047;-73
2021/09/24 02:45:07;;;;;;;7.85;5.00;;;18.10;99.90;;;18.42;72.61;101504.69;4958696;29;20043;-74
2021/09/24 02:47:35;;;;;;;5.17;4.13;;;18.00;99.90;;;18.08;73.84;101500.22;4958405;29;20051;-73
2021/09/24 02:50:05;;;;;;;7.55;4.93;;;17.60;99.90;;;17.63;74.72;101511.09;4958580;29;20078;-73
2021/09/24 02:52:33;;;;;;;9.80;5.30;;;17.20;99.90;;;17.39;76.22;101475.94;4958236;29;20465;-73
2021/09/24 02:55:02;;;;;;;6.35;4.57;;;17.00;99.90;;;17.63;76.01;101496.84;4958173;29;20126;-73
2021/09/24 02:57:30;;;;;;;4.68;4.20;;;17.10;99.90;;;17.71;75.68;101487.69;4957788;29;20551;-73
2021/09/24 03:00:00;;;;;;;6.10;4.30;;;17.20;99.90;;;17.82;75.53;101490.13;4958089;29;20071;-73
2021/09/24 03:02:29;;;;;;;4.75;3.97;;;17.30;99.90;;;17.90;75.04;101501.53;4958026;29;20491;-73
2021/09/24 03:04:58;;;;;;;7.10;4.93;;;17.40;99.90;;;17.95;74.77;101503.19;4957742;29;20040;-74
2021/09/24 03:07:26;;;;;;;12.27;5.40;;;17.50;99.90;;;17.85;74.72;101490.03;4957931;29;20052;-73
2021/09/24 03:09:55;;;;;;;7.20;4.68;;;17.50;99.90;;;18.02;75.05;101509.28;4957903;29;20122;-73
2021/09/24 03:12:23;;;;;;;6.80;5.05;;;17.50;99.90;;;18.06;75.06;101505.56;4957903;29;20047;-73
2021/09/24 03:14:52;;;;;;;9.35;5.55;;;17.60;99.90;;;17.31;75.11;101370.94;4957623;29;20043;-74
2021/09/24 03:17:22;;;;;;;10.82;5.43;;;17.60;99.90;;;18.16;75.16;101504.44;4957630;29;20051;-73
2021/09/24 03:19:50;;;;;;;9.10;5.80;;;17.70;99.90;;;18.25;74.89;101498.88;4957559;29;20074;-74
2021/09/24 03:22:19;;;;;;;13.02;5.82;;;17.80;99.90;;;18.38;74.91;101502.09;4957744;29;20083;-73
2021/09/24 03:24:47;;;;;;;14.80;6.32;;;17.90;99.90;;;18.47;74.67;101497.41;4957399;29;20110;-73
2021/09/24 03:27:16;;;;;;;11.18;5.70;;;18.00;99.90;;;18.53;74.92;101497.25;4957613;29;20046;-73
2021/09/24 03:29:44;;;;;;;10.38;5.43;;;18.10;99.90;;;18.50;74.73;101499.13;4957575;29;20114;-73
2021/09/24 03:32:13;;;;;;;8.95;5.60;;;18.10;99.90;;;18.26;75.06;101497.03;4957279;29;20043;-73
2021/09/24 03:34:43;;;;;;;12.57;6.45;;;17.80;99.90;;;18.22;75.25;101496.25;4957180;29;20564;-73
2021/09/24 03:37:11;;;;;;;8.77;5.07;;;17.70;99.90;;;18.31;75.08;101489.78;4957473;29;20070;-73
2021/09/24 03:39:40;;;;;;;12.80;6.78;;;17.80;99.90;;;18.36;75.16;101475.34;4957300;29;20099;-73
2021/09/24 03:42:08;;;;;;;16.88;7.95;;;18.00;99.90;;;18.54;75.14;101480.22;4957027;29;20043;-73
2021/09/24 03:44:38;;;;;;;19.52;8.18;;;18.10;99.90;;;18.70;75.00;101489.59;4957057;29;20122;-73
2021/09/24 03:47:06;;;;;;;15.20;7.63;;;18.20;99.90;;;18.83;75.20;101482.13;4956988;29;20074;-73
2021/09/24 03:49:34;;;;;;;18.35;9.38;;;18.30;99.90;;;18.93;75.20;101481.78;4957190;28;20059;-73
2021/09/24 03:52:05;;;;;;;16.33;9.15;;;18.40;99.90;;;18.99;75.48;101495.97;4956764;29;20102;-73
2021/09/24 03:54:33;;;;;;;13.77;8.07;;;18.50;99.90;;;18.97;75.63;101492.44;4956961;29;20074;-73
2021/09/24 03:57:02;;;;;;;9.63;6.47;;;18.50;99.90;;;18.76;76.27;101477.84;4956785;29;20070;-73
2021/09/24 03:59:30;;;;;;;14.13;6.50;;;18.40;99.90;;;18.56;76.73;101485.56;4956957;29;20413;-74
2021/09/24 04:01:59;;;;;;;13.50;6.40;;;18.10;99.90;;;18.60;76.80;101482.75;4956934;29;20107;-73
2021/09/24 04:04:28;;;;;;;11.52;6.63;;;18.10;99.90;;;18.67;76.75;101487.03;4956670;29;20497;-74
2021/09/24 04:06:56;;;;;;;20.08;9.02;;;18.20;99.90;;;18.68;76.52;101475.38;4956671;29;20490;-73
2021/09/24 04:09:26;;;;;;;17.52;8.38;;;18.20;99.90;;;18.79;76.42;101486.66;4956930;29;20074;-75
2021/09/24 04:11:54;;;;;;;25.42;10.57;;;18.30;99.90;;;18.88;76.11;101486.44;4956822;29;20043;-73
2021/09/24 04:14:22;;;;;;;14.38;9.32;;;18.40;99.90;;;18.90;76.23;101494.41;4956345;29;20498;-73
2021/09/24 04:16:51;;;;;;;15.93;9.05;;;18.50;99.90;;;18.91;76.37;101496.19;4956651;29;20051;-73
2021/09/24 04:19:20;;;;;;;21.10;8.80;;;18.50;99.90;;;18.75;76.76;101501.09;4956502;29;20059;-73
2021/09/24 04:21:50;;;;;;;19.38;8.77;;;18.40;99.90;;;18.61;76.36;101478.28;4955392;29;20051;-73
2021/09/24 04:24:18;;;;;;;17.45;8.60;;;18.30;99.90;;;18.71;76.52;101494.06;4956283;29;20502;-73
2021/09/24 04:26:48;;;;;;;16.23;8.55;;;18.20;99.90;;;18.63;77.25;101500.53;4956479;29;20072;-73
2021/09/24 04:29:17;;;;;;;25.55;11.18;;;18.10;99.90;;;18.50;77.98;101480.38;4956461;29;20454;-73
2021/09/24 04:31:45;;;;;;;17.30;10.25;;;18.10;99.90;;;17.89;78.25;101420.34;4956161;29;20405;-73
2021/09/24 04:34:14;;;;;;;20.38;9.85;;;18.20;99.90;;;18.74;78.04;101491.28;4956396;29;20051;-73
2021/09/24 04:36:42;;;;;;;22.08;11.63;;;18.30;99.90;;;18.79;78.01;101483.13;4956428;29;20043;-73
2021/09/24 04:39:11;;;;;;;22.55;13.95;;;18.40;99.90;;;18.87;78.07;101481.97;4956322;29;20058;-73
2021/09/24 04:41:39;;;;;;;23.38;14.10;;;18.40;99.90;;;19.03;78.78;101484.22;4956018;29;20138;-73
2021/09/24 04:44:09;;;;;;;25.30;13.85;;;18.50;99.90;;;19.12;79.00;101497.38;4956062;29;20386;-74
2021/09/24 04:46:37;;;;;;;19.23;11.40;;;18.60;99.90;;;19.13;78.85;101505.34;4955933;29;20039;-73
2021/09/24 04:49:05;;;;;;;23.80;13.82;;;18.70;99.90;;;19.17;78.84;101490.03;4956123;29;20681;-73
2021/09/24 04:51:34;;;;;;;29.50;15.45;;;18.70;99.90;;;19.23;78.83;101492.53;4956368;29;20239;-74
2021/09/24 04:54:02;;;;;;;23.75;15.10;;;18.80;99.90;;;19.30;79.28;101489.63;4955794;29;20090;-73
2021/09/24 04:56:31;;;;;;;26.83;15.23;;;18.80;99.90;;;19.34;79.39;101479.72;4955721;29;20044;-73
2021/09/24 04:58:59;;;;;;;23.25;15.82;;;18.90;99.90;;;19.41;79.96;101483.97;4956042;29;20039;-73
2021/09/24 05:01:29;;;;;;;25.73;17.13;;;18.90;99.90;;;19.43;80.40;101491.06;4955368;28;20047;-73
2021/09/24 05:03:57;;;;;;;29.50;17.33;;;19.00;99.90;;;19.48;80.76;101488.22;4955130;29;20126;-73
2021/09/24 05:06:25;;;;;;;32.67;17.52;;;19.00;99.90;;;19.51;80.95;101486.31;4955829;29;20290;-74
2021/09/24 05:08:54;;;;;;;32.25;20.73;;;19.00;99.90;;;19.55;81.58;101487.97;4955440;29;20047;-73
2021/09/24 05:11:22;;;;;;;31.40;20.73;;;19.10;99.90;;;19.58;82.63;101490.59;4955464;29;20043;-73
2021/09/24 05:13:51;;;;;;;32.97;20.98;;;19.10;99.90;;;19.52;83.27;101460.38;4955496;29;20054;-73
2021/09/24 05:16:19;;;;;;;29.27;20.40;;;19.20;99.90;;;19.63;83.52;101469.84;4955734;29;20061;-73
2021/09/24 05:18:49;;;;;;;29.70;20.23;;;19.20;99.90;;;19.67;83.90;101478.66;4955415;29;20133;-73
2021/09/24 05:21:18;;;;;;;32.77;22.17;;;19.20;99.90;;;19.68;84.18;101472.38;4955823;29;20110;-73
2021/09/24 05:23:46;;;;;;;33.30;20.40;;;19.20;99.90;;;19.63;83.99;101464.47;4955214;29;20306;-73
2021/09/24 05:26:15;;;;;;;34.67;22.50;;;19.20;99.90;;;19.68;84.61;101472.38;4955541;29;20047;-73
2021/09/24 05:28:44;;;;;;;36.65;22.27;;;19.20;99.90;;;19.76;84.54;101475.69;4955182;29;20054;-74
2021/09/24 05:31:12;;;;;;;34.72;22.77;;;19.30;99.90;;;19.76;84.59;101478.38;4955157;29;20390;-73
2021/09/24 05:33:41;;;;;;;31.25;21.48;;;19.30;99.90;;;19.73;85.07;101482.03;4955413;29;20051;-73
2021/09/24 05:36:11;;;;;;;37.80;22.27;;;19.30;99.90;;;19.70;85.24;101476.75;4955378;29;20047;-73
2021/09/24 05:38:40;;;;;;;33.58;22.58;;;19.20;99.90;;;19.60;85.18;101451.16;4955428;29;20058;-73
2021/09/24 05:41:09;;;;;;;32.08;20.90;;;19.20;99.90;;;19.74;85.30;101483.78;4955347;29;20635;-73
2021/09/24 05:43:38;;;;;;;30.27;21.02;;;19.30;99.90;;;19.31;85.28;101407.34;4954961;29;20402;-73
2021/09/24 05:46:06;;;;;;;31.73;21.63;;;19.30;99.90;;;19.69;85.92;101477.69;4955152;29;20098;-73
2021/09/24 05:48:35;;;;;;;34.45;21.83;;;19.20;99.90;;;19.74;85.72;101478.41;4954935;29;20043;-73
2021/09/24 05:51:04;;;;;;;34.60;22.08;;;19.30;99.90;;;19.74;85.71;101481.09;4954931;29;20126;-73
2021/09/24 05:53:33;;;;;;;31.63;22.77;;;19.30;99.90;;;19.62;86.12;101470.78;4955129;29;20090;-73
2021/09/24 05:56:02;;;;;;;37.03;22.75;;;19.30;99.90;;;19.62;86.47;101486.00;4955354;29;20545;-73
2021/09/24 05:58:30;;;;;;;30.98;22.50;;;19.20;99.90;;;19.59;87.00;101481.59;4954815;29;20042;-73
2021/09/24 06:00:59;;;;;;;35.30;23.63;;;19.20;99.90;;;19.53;87.09;101473.72;4954787;29;20511;-73
2021/09/24 06:03:27;;;;;;;33.90;23.05;;;19.10;99.90;;;19.55;87.27;101481.75;4955034;29;20046;-73
2021/09/24 06:05:56;;;;;;;36.65;23.98;;;19.10;99.90;;;19.55;87.43;101471.03;4955030;29;20051;-73
2021/09/24 06:08:24;;;;;;;37.78;24.00;;;19.10;99.90;;;19.55;87.45;101474.56;4955108;29;20098;-74
2021/09/24 06:10:54;;;;;;;36.47;23.83;;;19.10;99.90;;;19.19;87.27;101405.03;4954694;29;20505;-73
2021/09/24 06:13:24;;;;;;;39.00;24.45;;;19.10;99.90;;;19.60;87.35;101471.75;4955403;28;20086;-73
2021/09/24 06:15:53;;;;;;;36.15;24.38;;;19.20;99.90;;;19.47;87.24;101457.81;4958869;29;20055;-73
2021/09/24 06:18:22;;;;;;;33.75;24.35;;;19.20;99.90;;;19.58;87.02;101465.53;4958522;29;20397;-73
2021/09/24 06:20:50;;;;;;;36.22;23.88;;;19.20;99.90;;;19.64;86.82;101482.34;4958747;29;20073;-73
2021/09/24 06:23:19;;;;;;;35.58;25.08;;;19.20;99.90;;;19.61;86.83;101474.38;4958590;29;20055;-73
2021/09/24 06:25:47;;;;;;;35.03;25.05;;;19.20;99.90;;;19.70;87.14;101487.50;4958742;29;20048;-73
2021/09/24 06:28:17;;;;;;;34.47;23.98;;;19.30;99.90;;;19.79;87.18;101491.69;4941471;29;20382;-73
2021/09/24 06:30:45;;;;;;;38.63;24.80;;;19.30;99.90;;;19.65;87.35;101454.56;4958374;29;20047;-73
2021/09/24 06:33:14;;;;;;;38.22;25.55;;;19.40;99.90;;;19.87;87.64;101472.66;4958544;29;20709;-73
2021/09/24 06:35:42;;;;;;;39.70;25.33;;;19.50;99.90;;;20.14;87.13;101502.16;4958214;29;20074;-74
2021/09/24 06:38:11;;;;;;;37.00;23.40;;;19.70;99.90;;;20.21;86.37;101501.06;4958515;29;20083;-74
2021/09/24 06:40:39;;;;;;;28.95;22.65;;;19.80;99.90;;;20.24;86.05;101505.44;4958041;29;20047;-73
2021/09/24 06:43:09;;;;;;;32.13;21.98;;;19.80;99.90;;;20.29;85.57;101504.38;4957966;29;20039;-73
2021/09/24 06:45:39;;;;;;;34.63;22.67;;;19.80;99.90;;;20.27;85.38;101495.47;4958336;29;20051;-73
2021/09/24 06:48:08;;;;;;;41.15;23.45;;;19.80;99.90;;;20.36;85.64;101511.28;4958442;29;20126;-73
2021/09/24 06:50:38;;;;;;;30.70;21.77;;;19.90;99.90;;;20.53;85.66;101505.31;4957717;29;20035;-73
2021/09/24 06:53:07;;;;;;;33.72;21.80;;;20.10;99.90;;;20.57;85.47;101499.81;4957948;29;20409;-70
2021/09/24 06:55:38;;;;;;;31.90;20.90;;;20.20;99.90;;;20.63;85.14;101501.38;4940934;29;20050;-72
2021/09/24 06:58:07;;;;;;;;;;;20.20;99.90;;;20.65;84.67;101499.53;4958388;29;20043;-74
2021/09/24 07:00:35;;;;;;;36.40;19.95;;;20.30;99.90;;;20.66;84.51;101509.34;4957789;29;19926;-69
2021/09/24 07:03:05;;;;;;;30.83;19.98;;;20.20;99.90;;;20.66;84.32;101510.22;4957768;29;20576;-64
2021/09/24 07:05:34;;;;;;;29.48;19.52;;;20.20;99.90;;;20.54;83.96;101478.38;4957638;29;20043;-63
2021/09/24 07:08:02;;;;;;;32.30;20.05;;;20.30;99.90;;;20.80;84.20;101508.84;4957668;29;20047;-65
2021/09/24 07:10:31;;;;;;;27.52;19.55;;;20.30;99.90;;;20.89;83.80;101504.00;4957655;29;20047;-65
2021/09/24 07:13:00;;;;;;;29.35;20.27;;;20.50;99.90;;;20.82;83.34;101477.38;4958166;29;20107;-63
2021/09/24 07:15:28;;;;;;;33.03;19.98;;;20.50;99.90;;;21.00;82.72;101492.84;4957523;29;20043;-64
2021/09/24 07:17:56;;;;;;;32.03;19.10;;;20.70;99.90;;;21.18;82.50;101516.41;4957541;29;20047;-64
2021/09/24 07:20:26;;;;;;;28.08;19.00;;;20.80;99.90;;;21.37;82.41;101506.69;4957569;29;20187;-65
2021/09/24 07:23:10;;;;;;;31.27;18.80;;;20.90;99.90;;;21.66;81.56;101510.94;4957765;29;20055;-64
2021/09/24 07:25:38;;;;;;;25.70;18.73;;;21.20;99.90;;;21.94;80.48;101512.50;4956388;28;20125;-69
2021/09/24 07:28:06;;;;;;;26.73;18.02;;;21.50;99.90;;;22.08;79.56;101504.72;4957308;29;20106;-67
2021/09/24 07:30:35;;;;;;;24.65;17.33;;;21.70;99.90;;;22.39;78.60;101513.28;4957253;29;20077;-70
2021/09/24 07:33:03;;;;;;;27.15;17.27;;;22.00;99.90;;;22.58;77.47;101517.91;4957162;29;20055;-67
2021/09/24 07:35:33;;;;;;;22.42;15.25;;;22.20;99.90;;;22.76;76.14;101517.09;4957479;29;20135;-67
2021/09/24 07:38:02;;;;;;;24.90;15.52;;;22.40;99.90;;;22.95;75.26;101520.72;4957461;29;20054;-67
2021/09/24 07:40:30;;;;;;;24.27;15.40;;;22.60;99.90;;;23.04;74.42;101531.09;4957371;29;20047;-67
2021/09/24 07:42:59;;;;;;;24.52;15.75;;;22.70;99.90;;;22.93;73.72;101509.13;4957062;29;20090;-68
2021/09/24 07:45:27;;;;;;;23.05;15.18;;;22.70;99.90;;;23.19;73.33;101533.09;4956884;29;20082;-67
2021/09/24 07:47:56;;;;;;;20.75;14.15;;;22.80;99.90;;;23.22;72.86;101530.25;4956924;29;20047;-67
2021/09/24 07:50:24;;;;;;;27.63;15.50;;;22.80;99.90;;;23.34;73.06;101535.16;4956935;29;20074;-67
2021/09/24 07:52:55;;;;;;;23.35;14.40;;;22.90;99.90;;;23.59;72.39;101529.47;4957159;29;20126;-67
2021/09/24 07:55:25;;;;;;;23.75;13.57;;;23.10;99.90;;;23.62;70.59;101516.66;4956925;29;20043;-67
2021/09/24 07:57:59;;;;;;;20.05;12.75;;;23.30;99.90;;;23.61;70.41;101527.56;4956863;29;20051;-67
2021/09/24 08:00:30;;;;;;;21.52;12.27;;;23.30;99.90;;;23.54;69.88;101524.25;4957017;29;20043;-67
2021/09/24 08:02:59;;;;;;;19.80;13.05;;;23.20;99.90;;;23.59;70.25;101522.22;4957039;29;20044;-66
2021/09/24 08:05:28;;;;;;;21.55;13.32;;;23.20;99.90;;;23.60;70.53;101529.38;4956818;29;20166;-66
2021/09/24 08:07:58;;;;;;;20.02;11.93;;;23.20;99.90;;;23.74;69.86;101536.81;4956943;29;20485;-67
2021/09/24 08:10:28;;;;;;;19.42;11.07;;;23.30;99.90;;;23.71;69.11;101521.63;4956606;29;20046;-66
2021/09/24 08:12:57;;;;;;;17.17;10.15;;;23.30;99.90;;;23.89;68.59;101534.25;4956574;29;20066;-67
2021/09/24 08:15:26;;;;;;;20.67;11.77;;;23.50;99.90;;;23.76;68.78;101505.19;4956717;29;20556;-66
2021/09/24 08:17:54;;;;;;;17.05;11.73;;;23.50;99.90;;;23.77;69.48;101532.13;4956263;29;20067;-67
2021/09/24 08:20:23;;;;;;;18.75;10.68;;;23.40;99.90;;;23.97;68.46;101536.56;4956680;29;20071;-67
2021/09/24 08:22:51;;;;;;;16.48;10.85;;;23.50;99.90;;;23.96;67.77;101510.50;4956573;29;20101;-67
2021/09/24 08:25:21;;;;;;;18.75;9.70;;;23.60;99.90;;;24.27;67.05;101537.81;4956314;29;20504;-66
2021/09/24 08:27:50;;;;;;;17.65;9.23;;;23.90;99.90;;;24.35;66.19;101543.69;4956269;29;20110;-66
2021/09/24 08:30:22;;;;;;;16.88;9.45;;;23.90;99.90;;;24.33;65.27;101529.34;4956153;29;20074;-67
2021/09/24 08:32:51;;;;;;;16.38;10.00;;;24.00;99.90;;;24.37;65.36;101530.09;4956188;29;20051;-67
2021/09/24 08:35:21;;;;;;;17.15;9.25;;;23.90;99.90;;;24.66;64.72;101532.19;4956151;29;20424;-68
2021/09/24 08:37:51;;;;;;;16.73;8.63;;;24.20;99.90;;;24.59;63.78;101493.75;4956297;28;20043;-66
2021/09/24 08:40:24;;;;;;;15.27;8.90;;;24.40;99.90;;;24.99;63.13;101534.00;4955997;29;20047;-66
2021/09/24 08:42:53;;;;;;;19.98;7.82;;;24.60;99.90;;;24.96;61.77;101527.88;4956223;29;20055;-66
2021/09/24 08:45:26;;;;;;;12.82;7.18;;;24.60;99.90;;;25.16;62.10;101527.72;4938610;29;20533;-67
2021/09/24 08:47:57;;;;;;;20.75;8.27;;;24.80;99.90;;;25.29;61.39;101539.63;4955719;29;20079;-66
2021/09/24 08:50:28;;;;;;;13.48;7.65;;;24.90;99.90;;;25.30;61.08;101535.09;4955868;29;20051;-64
2021/09/24 08:52:57;;;;;;;15.75;7.72;;;24.90;99.90;;;25.27;60.84;101522.56;4956344;29;20043;-67
2021/09/24 08:55:28;;;;;;;15.18;7.45;;;25.00;99.90;;;25.47;61.16;101535.06;4955973;29;20094;-66
2021/09/24 08:57:57;;;;;;;12.15;7.75;;;25.00;99.90;;;25.58;61.22;101530.78;4956036;29;20051;-66
2021/09/24 09:00:27;;;;;;;17.45;8.02;;;25.20;99.90;;;25.64;60.56;101527.75;4955758;29;20475;-66
2021/09/24 09:02:59;;;;;;;13.98;7.78;;;25.20;99.90;;;25.78;59.42;101526.97;4955890;29;20051;-66
2021/09/24 09:05:35;;;;;;;16.63;7.57;;;25.40;99.90;;;25.82;58.02;101532.09;4955595;29;20079;-66
2021/09/24 09:08:17;;;;;;;10.45;6.28;;;25.50;99.90;;;25.68;57.38;101533.84;4955872;29;20106;-66
2021/09/24 09:10:52;;;;;;;12.65;6.63;;;25.40;99.90;;;25.58;57.52;101519.94;4955552;29;20039;-69
2021/09/24 09:13:21;;;;;;;12.18;7.47;;;25.20;99.90;;;25.63;57.58;101533.22;4955721;29;20047;-67
2021/09/24 09:16:00;;;;;;;11.27;7.00;;;25.20;99.90;;;25.48;58.27;101529.53;4955391;29;20101;-67
2021/09/24 09:18:32;;;;;;;11.50;7.05;;;25.10;99.90;;;25.61;58.63;101530.59;4955802;29;20114;-67
2021/09/24 09:21:03;;;;;;;10.63;6.97;;;25.20;99.90;;;25.68;58.29;101502.22;4955362;29;20094;-67
2021/09/24 09:23:33;;;;;;;10.60;6.93;;;25.40;99.90;;;25.76;57.47;101524.31;4954358;29;20051;-67
2021/09/24 09:26:09;;;;;;;16.33;7.00;;;25.40;99.90;;;25.93;57.59;101529.66;4955539;29;20070;-67
2021/09/24 09:28:41;;;;;;;11.77;7.10;;;25.50;99.90;;;25.91;56.99;101539.72;4955520;29;20047;-67
2021/09/24 09:31:28;;;;;;;12.23;7.63;;;25.50;99.90;;;25.87;56.75;101531.84;4955182;29;20047;-67
2021/09/24 09:33:59;;;;;;;12.27;8.00;;;25.50;99.90;;;25.81;56.57;101527.66;4955174;29;20064;-67
2021/09/24 09:36:31;;;;;;;12.70;7.30;;;25.40;99.90;;;25.92;56.58;101525.19;4955418;29;20498;-67
2021/09/24 09:39:00;;;;;;;12.07;7.47;;;25.40;99.90;;;25.81;56.57;101522.22;4955336;29;20055;-70
2021/09/24 09:41:31;;;;;;;15.07;7.68;;;25.50;99.90;;;25.73;57.26;101497.38;4955292;29;20046;-70
2021/09/24 09:44:01;;;;;;;14.23;7.85;;;25.40;99.90;;;25.92;57.36;101519.78;4955132;29;20035;-67
2021/09/24 09:46:32;;;;;;;13.18;7.82;;;25.50;99.90;;;25.73;56.80;101512.78;4955185;29;20118;-67
2021/09/24 09:49:04;;;;;;;10.40;6.88;;;25.40;99.90;;;25.79;57.07;101510.59;4954767;28;20065;-67
2021/09/24 09:51:34;;;;;;;9.80;6.82;;;25.40;99.90;;;25.44;57.45;101502.69;4954977;29;20047;-67
2021/09/24 09:54:03;;;;;;;14.27;7.55;;;25.20;99.90;;;25.53;57.99;101510.34;4954939;29;20051;-67
2021/09/24 09:56:42;;;;;;;12.95;7.32;;;25.10;99.90;;;25.45;58.19;101491.78;4955040;29;20052;-67
2021/09/24 09:59:25;;;;;;;16.88;7.60;;;25.00;99.90;;;25.33;58.32;101505.97;4954948;29;20082;-67
2021/09/24 10:02:14;;;;;;;12.40;7.60;;;24.90;99.90;;;25.17;58.52;101502.34;4955256;29;20099;-66
2021/09/24 10:04:45;;;;;;;11.32;7.53;;;24.80;99.90;;;25.22;59.42;101512.94;4954916;29;20043;-67
2021/09/24 10:07:16;;;;;;;13.85;7.90;;;24.80;99.90;;;25.15;59.60;101485.31;4954745;29;20082;-67
2021/09/24 10:09:46;;;;;;;12.93;7.93;;;24.80;99.90;;;25.39;60.10;101491.22;4954853;29;20059;-67
2021/09/24 10:12:18;;;;;;;;;;;24.90;99.90;;;25.50;59.90;101481.56;4938393;29;20086;-66
2021/09/24 10:14:48;;;;;;;14.73;7.53;;;25.10;99.90;;;25.47;59.38;101486.28;4955069;29;20017;-67